Main page
METAR-TAF:

METAR-TAF

Airports :

Ford Airport

Iron Mountain / Kingsford, Michigan, United States

latitude: 45-48-51N, longitude: 088-06-32W, elevation: 1181 ft

Current weather observation

The report was made 23 minutes ago, at 13:54 UTC
Wind 12 mph from the North
Temperature 21°F
Humidity 62%
Pressure 29.75 in. Hg
Visibility: 10 miles
Broken clouds at a height of 2500 ft
Overcast at a height of 4700 ft

METAR: KIMT 231354Z AUTO 36010KT 10SM BKN025 OVC047 M06/M12 A2975 RMK AO2 SLP087 T10561117

Time: 09:17 (14:17 UTC)


TAF: missing

Weather observations and forecasts of more than 4000 airports (METAR and TAF reports).

The available stations are represented by yellow and red dots on the map.

Hover mouse over dot to see the name of the station.

Then click to see weather observations and forecasts.

To change the map : click on the green buttons with a black cross to zoom in, on the green button with a dash to zoom out, or on the green arrows for adjacent maps.


METAR-TAF: